createdAt,value
2018-05-28T00:02:13.970Z,101620.91
2018-05-28T00:04:42.581Z,101625.23
2018-05-28T00:07:11.291Z,101629.97
2018-05-28T00:09:39.903Z,101626.53
2018-05-28T00:12:08.643Z,101632.84
2018-05-28T00:14:37.633Z,101638.20
2018-05-28T00:17:06.239Z,101629.81
2018-05-28T00:19:35.057Z,101629.81
2018-05-28T00:22:03.788Z,101637.59
2018-05-28T00:24:32.427Z,101631.11
2018-05-28T00:27:01.151Z,101631.76
2018-05-28T00:29:29.833Z,101630.63
2018-05-28T00:31:58.560Z,101636.97
2018-05-28T00:34:27.246Z,101631.05
2018-05-28T00:36:56.092Z,101630.63
2018-05-28T00:39:24.821Z,101630.18
2018-05-28T00:41:53.486Z,101624.00
2018-05-28T00:44:22.142Z,101631.91
2018-05-28T00:46:50.827Z,101627.55
2018-05-28T00:49:26.312Z,101627.95
2018-05-28T00:51:55.292Z,101626.31
2018-05-28T00:54:23.807Z,101629.48
2018-05-28T00:56:52.386Z,101626.70
2018-05-28T00:59:21.081Z,101617.14
2018-05-28T01:01:50.100Z,101615.23
2018-05-28T01:04:18.807Z,101611.07
2018-05-28T01:06:47.564Z,101618.02
2018-05-28T01:09:16.219Z,101616.36
2018-05-28T01:11:44.856Z,101608.86
2018-05-28T01:14:13.791Z,101608.28
2018-05-28T01:16:42.481Z,101608.69
2018-05-28T01:19:11.042Z,101604.02
2018-05-28T01:21:39.632Z,101602.16
2018-05-28T01:24:14.854Z,101606.06
2018-05-28T01:26:43.868Z,101605.50
2018-05-28T01:29:12.740Z,101606.72
2018-05-28T01:31:41.366Z,101602.78
2018-05-28T01:34:10.281Z,101596.24
2018-05-28T01:36:39.284Z,101605.08
2018-05-28T01:39:08.231Z,101601.05
2018-05-28T01:41:37.094Z,101607.39
2018-05-28T01:44:05.808Z,101606.50
2018-05-28T01:46:34.684Z,101596.92
2018-05-28T01:49:03.330Z,101604.12
2018-05-28T01:51:31.855Z,101600.44
2018-05-28T01:54:00.731Z,101599.27
2018-05-28T01:56:29.487Z,101599.34
2018-05-28T01:58:58.052Z,101598.55
2018-05-28T02:01:26.838Z,101604.86
2018-05-28T02:03:55.574Z,101601.23
2018-05-28T02:06:24.115Z,101600.46
2018-05-28T02:08:52.979Z,101602.19
2018-05-28T02:11:21.866Z,101603.66
2018-05-28T02:13:50.491Z,101597.16
2018-05-28T02:16:19.129Z,101598.63
2018-05-28T02:18:47.821Z,101595.16
2018-05-28T02:21:16.532Z,101599.57
2018-05-28T02:23:45.120Z,101594.67
2018-05-28T02:26:13.713Z,101592.30
2018-05-28T02:28:42.383Z,101593.58
2018-05-28T02:31:10.889Z,101585.70
2018-05-28T02:33:39.417Z,101587.95
2018-05-28T02:36:08.000Z,101587.38
2018-05-28T02:38:36.482Z,101586.48
2018-05-28T02:41:11.691Z,101582.41
2018-05-28T02:43:40.359Z,101593.02
2018-05-28T02:46:09.523Z,101600.86
2018-05-28T02:48:38.127Z,101607.00
2018-05-28T02:51:06.871Z,101599.53
2018-05-28T02:53:35.490Z,101600.23
2018-05-28T02:56:04.051Z,101599.18
2018-05-28T02:58:32.863Z,101600.95
2018-05-28T03:01:01.663Z,101601.27
2018-05-28T03:03:30.472Z,101599.87
2018-05-28T03:05:59.126Z,101595.56
2018-05-28T03:08:28.050Z,101599.00
2018-05-28T03:10:56.826Z,101604.83
2018-05-28T03:13:25.407Z,101606.86
2018-05-28T03:15:54.097Z,101605.81
2018-05-28T03:18:23.045Z,101607.41
2018-05-28T03:20:51.603Z,101609.65
2018-05-28T03:23:20.088Z,101606.64
2018-05-28T03:26:03.623Z,101606.72
2018-05-28T03:28:32.212Z,101601.66
2018-05-28T03:31:01.057Z,101614.41
2018-05-28T03:33:29.645Z,101610.79
2018-05-28T03:35:58.372Z,101606.36
2018-05-28T03:38:27.322Z,101617.40
2018-05-28T03:40:55.843Z,101617.93
2018-05-28T03:43:24.665Z,101621.78
2018-05-28T03:45:53.571Z,101618.03
2018-05-28T03:48:22.339Z,101616.64
2018-05-28T03:50:50.905Z,101613.18
2018-05-28T03:53:19.791Z,101615.81
2018-05-28T03:55:48.419Z,101615.55
2018-05-28T03:58:17.084Z,101610.71
2018-05-28T04:04:23.478Z,101614.69
2018-05-28T04:06:52.175Z,101611.45
2018-05-28T04:09:29.503Z,101614.70
2018-05-28T04:11:58.082Z,101617.60
2018-05-28T04:14:26.728Z,101621.05
2018-05-28T04:16:55.199Z,101620.23
2018-05-28T04:19:23.674Z,101623.89
2018-05-28T04:21:52.639Z,101624.81
2018-05-28T04:24:21.165Z,101617.88
2018-05-28T04:26:49.707Z,101620.34
2018-05-28T04:29:18.302Z,101621.58
2018-05-28T04:31:46.931Z,101620.61
2018-05-28T04:34:16.207Z,101625.72
2018-05-28T04:36:44.959Z,101621.23
2018-05-28T04:39:14.573Z,101626.89
2018-05-28T04:41:43.711Z,101627.45
2018-05-28T04:44:12.174Z,101620.02
2018-05-28T04:46:40.851Z,101625.81
2018-05-28T04:49:09.588Z,101630.81
2018-05-28T04:51:38.162Z,101632.09
2018-05-28T04:54:06.617Z,101628.50
2018-05-28T04:56:35.791Z,101633.47
2018-05-28T04:59:04.405Z,101633.30
2018-05-28T05:01:33.480Z,101631.20
2018-05-28T05:04:08.661Z,101633.34
2018-05-28T05:06:37.266Z,101630.68
2018-05-28T05:09:06.866Z,101639.82
2018-05-28T05:11:35.371Z,101638.71
2018-05-28T05:14:03.875Z,101639.59
2018-05-28T05:16:32.587Z,101632.19
2018-05-28T05:19:01.223Z,101643.25
2018-05-28T05:21:29.727Z,101641.39
2018-05-28T05:23:58.179Z,101645.84
2018-05-28T05:26:26.639Z,101651.09
2018-05-28T05:28:55.365Z,101657.28
2018-05-28T05:31:24.084Z,101655.40
2018-05-28T05:33:52.507Z,101657.78
2018-05-28T05:36:20.975Z,101659.27
2018-05-28T05:38:49.413Z,101659.92
2018-05-28T05:41:17.995Z,101664.19
2018-05-28T05:43:46.481Z,101664.17
2018-05-28T05:46:15.192Z,101659.65
2018-05-28T05:48:43.655Z,101653.34
2018-05-28T05:51:12.486Z,101661.95
2018-05-28T05:53:41.224Z,101670.33
2018-05-28T05:56:09.908Z,101676.72
2018-05-28T05:58:38.374Z,101675.40
2018-05-28T06:01:07.108Z,101680.00
2018-05-28T06:03:35.793Z,101683.69
2018-05-28T06:06:04.458Z,101661.02
2018-05-28T06:08:33.001Z,101686.28
2018-05-28T06:11:01.658Z,101686.89
2018-05-28T06:13:30.195Z,101685.98
2018-05-28T06:15:58.857Z,101691.07
2018-05-28T06:18:27.268Z,101695.98
2018-05-28T06:20:55.985Z,101701.37
2018-05-28T06:23:24.663Z,101700.20
2018-05-28T06:25:53.860Z,101705.40
2018-05-28T06:28:22.464Z,101707.67
2018-05-28T06:30:53.930Z,101712.13
2018-05-28T06:33:22.609Z,101709.02
2018-05-28T06:35:51.423Z,101714.02
2018-05-28T06:38:19.863Z,101706.36
2018-05-28T06:40:48.583Z,101716.30
2018-05-28T06:43:17.167Z,101713.85
2018-05-28T06:45:45.679Z,101710.75
2018-05-28T06:48:14.299Z,101705.59
2018-05-28T06:50:42.858Z,101704.84
2018-05-28T06:53:11.334Z,101707.25
2018-05-28T06:55:40.025Z,101702.97
2018-05-28T06:58:08.671Z,101698.50
2018-05-28T07:00:37.356Z,101697.27
2018-05-28T07:03:06.099Z,101692.19
2018-05-28T07:05:34.643Z,101698.25
2018-05-28T07:08:03.653Z,101696.22
2018-05-28T07:10:32.326Z,101704.58
2018-05-28T07:13:01.044Z,101697.50
2018-05-28T07:15:29.766Z,101696.55
2018-05-28T07:17:58.607Z,101691.68
2018-05-28T07:20:27.557Z,101693.82
2018-05-28T07:22:56.045Z,101701.84
2018-05-28T07:25:24.647Z,101698.85
2018-05-28T07:27:53.194Z,101699.87
2018-05-28T07:30:21.992Z,101699.09
2018-05-28T07:32:50.695Z,101696.67
2018-05-28T07:35:19.189Z,101693.53
2018-05-28T07:37:47.658Z,101690.50
2018-05-28T07:40:16.138Z,101694.77
2018-05-28T07:42:44.834Z,101695.86
2018-05-28T07:45:13.322Z,101688.85
2018-05-28T07:47:42.187Z,101688.90
2018-05-28T07:50:10.923Z,101685.22
2018-05-28T07:52:42.990Z,101681.16
2018-05-28T07:55:11.563Z,101686.41
2018-05-28T07:57:40.026Z,101678.66
2018-05-28T08:00:09.344Z,101674.45
2018-05-28T08:02:39.000Z,101677.02
2018-05-28T08:05:07.999Z,101677.37
2018-05-28T08:07:36.483Z,101673.25
2018-05-28T08:10:06.973Z,101676.20
2018-05-28T08:12:37.628Z,101668.44
2018-05-28T08:15:06.657Z,101665.62
2018-05-28T08:17:35.271Z,101667.64
2018-05-28T08:20:03.967Z,101657.67
2018-05-28T08:22:32.442Z,101654.20
2018-05-28T08:25:00.990Z,101651.86
2018-05-28T08:27:29.723Z,101660.09
2018-05-28T08:29:58.191Z,101646.97
2018-05-28T08:32:26.684Z,101648.41
2018-05-28T08:34:55.550Z,101648.95
2018-05-28T08:37:24.347Z,101647.48
2018-05-28T08:39:53.640Z,101651.27
2018-05-28T08:42:22.321Z,101647.91
2018-05-28T08:44:51.342Z,101643.62
2018-05-28T08:47:19.903Z,101641.03
2018-05-28T08:49:49.544Z,101638.59
2018-05-28T08:52:18.320Z,101642.83
2018-05-28T08:54:46.808Z,101641.06
2018-05-28T08:57:16.858Z,101636.87
2018-05-28T08:59:45.721Z,101641.72
2018-05-28T09:02:14.367Z,101638.51
2018-05-28T09:04:42.811Z,101634.97
2018-05-28T09:07:11.318Z,101636.05
2018-05-28T09:09:39.757Z,101629.83
2018-05-28T09:12:08.365Z,101633.80
2018-05-28T09:14:36.828Z,101630.20
2018-05-28T09:17:05.407Z,101639.27
2018-05-28T09:19:34.816Z,101632.59
2018-05-28T09:22:07.869Z,101632.84
2018-05-28T09:24:37.723Z,101633.48
2018-05-28T09:27:08.269Z,101626.00
2018-05-28T09:29:38.188Z,101632.18
2018-05-28T09:32:06.720Z,101628.61
2018-05-28T09:34:35.177Z,101629.14
2018-05-28T09:37:03.649Z,101626.84
2018-05-28T09:39:32.193Z,101627.63
2018-05-28T09:42:00.710Z,101626.57
2018-05-28T09:44:29.220Z,101607.31
2018-05-28T09:46:57.806Z,101613.05
2018-05-28T09:49:26.261Z,101615.92
2018-05-28T09:51:54.836Z,101613.69
2018-05-28T09:54:23.692Z,101620.14
2018-05-28T09:56:52.290Z,101620.17
2018-05-28T09:59:20.727Z,101617.20
2018-05-28T10:01:49.276Z,101616.97
2018-05-28T10:04:17.719Z,101615.38
2018-05-28T10:06:46.260Z,101620.59
2018-05-28T10:09:14.828Z,101615.53
2018-05-28T10:11:44.071Z,101616.92
2018-05-28T10:14:12.617Z,101618.80
2018-05-28T10:16:41.217Z,101619.83
2018-05-28T10:19:09.705Z,101612.90
2018-05-28T10:21:38.198Z,101622.61
2018-05-28T10:24:06.785Z,101610.14
2018-05-28T10:26:35.817Z,101609.57
2018-05-28T10:29:04.615Z,101610.02
2018-05-28T10:31:33.307Z,101616.27
2018-05-28T10:34:03.624Z,101613.19
2018-05-28T10:36:32.407Z,101614.25
2018-05-28T10:39:01.197Z,101606.19
2018-05-28T10:41:29.809Z,101611.81
2018-05-28T10:43:58.745Z,101607.75
2018-05-28T10:46:27.211Z,101603.37
2018-05-28T10:48:55.865Z,101610.58
2018-05-28T10:51:24.656Z,101601.14
2018-05-28T10:53:53.568Z,101596.30
2018-05-28T10:56:22.098Z,101602.43
2018-05-28T10:58:51.025Z,101600.11
2018-05-28T11:01:19.615Z,101566.11
2018-05-28T11:03:48.070Z,101604.24
2018-05-28T11:06:16.723Z,101594.42
2018-05-28T11:08:45.424Z,101595.44
2018-05-28T11:11:14.512Z,101596.83
2018-05-28T11:13:43.188Z,101595.52
2018-05-28T11:16:12.787Z,101590.82
2018-05-28T11:18:42.295Z,101593.02
2018-05-28T11:21:11.860Z,101585.44
2018-05-28T11:23:40.845Z,101583.04
2018-05-28T11:26:09.458Z,101576.06
2018-05-28T11:28:39.362Z,101596.96
2018-05-28T11:31:08.160Z,101592.56
2018-05-28T11:33:37.878Z,101593.42
2018-05-28T11:36:07.054Z,101592.92
2018-05-28T11:38:35.954Z,101587.78
2018-05-28T11:41:05.287Z,101584.58
2018-05-28T11:43:34.415Z,101571.89
2018-05-28T11:46:03.103Z,101581.12
2018-05-28T11:48:31.658Z,101582.34
2018-05-28T11:51:00.284Z,101576.53
2018-05-28T11:53:28.938Z,101582.57
2018-05-28T11:55:57.648Z,101575.13
2018-05-28T11:58:26.312Z,101569.14
2018-05-28T12:00:55.171Z,101575.70
2018-05-28T12:03:25.011Z,101570.05
2018-05-28T12:05:53.832Z,101567.89
2018-05-28T12:08:22.591Z,101563.05
2018-05-28T12:10:51.186Z,101561.73
2018-05-28T12:13:20.407Z,101563.56
2018-05-28T12:15:49.143Z,101558.78
2018-05-28T12:18:17.682Z,101553.66
2018-05-28T12:20:48.507Z,101551.02
2018-05-28T12:23:17.263Z,101557.73
2018-05-28T12:25:46.863Z,101551.39
2018-05-28T12:28:16.386Z,101553.31
2018-05-28T12:30:45.011Z,101558.31
2018-05-28T12:33:13.559Z,101553.92
2018-05-28T12:35:42.355Z,101544.48
2018-05-28T12:38:11.024Z,101547.05
2018-05-28T12:40:39.599Z,101543.52
2018-05-28T12:43:09.181Z,101529.99
2018-05-28T12:45:37.870Z,101531.49
2018-05-28T12:48:06.447Z,101519.74
2018-05-28T12:50:35.375Z,101524.19
2018-05-28T12:53:04.879Z,101528.48
2018-05-28T12:55:33.358Z,101536.05
2018-05-28T12:58:03.084Z,101511.53
2018-05-28T13:00:31.747Z,101524.79
2018-05-28T13:03:01.123Z,101500.42
2018-05-28T13:05:31.017Z,101521.64
2018-05-28T13:08:00.693Z,101521.34
2018-05-28T13:10:29.262Z,101516.74
2018-05-28T13:12:57.979Z,101521.70
2018-05-28T13:15:27.292Z,101511.45
2018-05-28T13:17:56.334Z,101500.88
2018-05-28T13:20:25.708Z,101496.80
2018-05-28T13:22:56.038Z,101500.19
2018-05-28T13:25:25.932Z,101497.97
2018-05-28T13:27:54.464Z,101494.52
2018-05-28T13:30:23.131Z,101499.55
2018-05-28T13:32:51.707Z,101489.88
2018-05-28T13:35:20.604Z,101488.89
2018-05-28T13:37:49.088Z,101475.75
2018-05-28T13:40:17.873Z,101482.94
2018-05-28T13:42:46.858Z,101490.02
2018-05-28T13:45:16.645Z,101470.87
2018-05-28T13:47:45.866Z,101472.79
2018-05-28T13:50:23.406Z,101466.02
2018-05-28T13:52:53.161Z,101472.03
2018-05-28T13:55:22.359Z,101466.12
2018-05-28T13:57:53.403Z,101470.09
2018-05-28T14:00:22.180Z,101458.80
2018-05-28T14:02:50.901Z,101465.39
2018-05-28T14:05:21.008Z,101459.55
2018-05-28T14:07:51.444Z,101455.64
2018-05-28T14:10:21.859Z,101451.56
2018-05-28T14:12:54.140Z,101451.81
2018-05-28T14:15:32.025Z,101445.48
2018-05-28T14:18:03.488Z,101437.98
2018-05-28T14:20:35.074Z,101433.56
2018-05-28T14:23:03.639Z,101443.20
2018-05-28T14:25:33.660Z,101440.99
2018-05-28T14:28:02.544Z,101441.35
2018-05-28T14:30:32.345Z,101432.16
2018-05-28T14:33:01.592Z,101430.75
2018-05-28T14:35:32.334Z,101431.67
2018-05-28T14:38:01.242Z,101427.17
2018-05-28T14:40:29.843Z,101420.99
2018-05-28T14:43:01.165Z,101421.76
2018-05-28T14:45:32.956Z,101416.94
2018-05-28T14:48:02.650Z,101411.55
2018-05-28T14:50:34.508Z,101409.55
2018-05-28T14:53:04.188Z,101412.98
2018-05-28T14:55:33.070Z,101406.63
2018-05-28T14:58:02.347Z,101392.60
2018-05-28T15:00:31.846Z,101392.60
2018-05-28T15:03:01.605Z,101392.77
2018-05-28T15:05:32.080Z,101395.12
2018-05-28T15:08:02.610Z,101391.29
2018-05-28T15:10:32.628Z,101391.36
2018-05-28T15:13:03.075Z,101393.27
2018-05-28T15:15:31.632Z,101384.28
2018-05-28T15:18:03.005Z,101378.40
2018-05-28T15:20:31.960Z,101383.27
2018-05-28T15:23:01.078Z,101371.78
2018-05-28T15:25:29.880Z,101367.19
2018-05-28T15:28:03.723Z,101368.91
2018-05-28T15:30:33.508Z,101362.19
2018-05-28T15:33:02.185Z,101366.48
2018-05-28T15:35:31.075Z,101357.85
2018-05-28T15:38:12.523Z,101352.89
2018-05-28T15:40:41.254Z,101349.59
2018-05-28T15:43:10.532Z,101357.66
2018-05-28T15:45:39.065Z,101362.92
2018-05-28T15:48:07.960Z,101352.69
2018-05-28T15:50:36.828Z,101352.81
2018-05-28T15:53:08.185Z,101349.33
2018-05-28T15:55:38.829Z,101355.09
2018-05-28T15:58:09.023Z,101355.63
2018-05-28T16:00:37.756Z,101351.63
2018-05-28T16:03:06.241Z,101351.80
2018-05-28T16:05:41.072Z,101364.05
2018-05-28T16:08:09.652Z,101366.41
2018-05-28T16:10:38.400Z,101356.77
2018-05-28T16:13:06.994Z,101358.57
2018-05-28T16:15:35.612Z,101362.72
2018-05-28T16:18:05.079Z,101356.48
2018-05-28T16:20:33.803Z,101356.25
2018-05-28T16:23:02.588Z,101355.36
2018-05-28T16:25:31.697Z,101362.47
2018-05-28T16:28:00.153Z,101361.67
2018-05-28T16:30:28.679Z,101365.31
2018-05-28T16:32:57.478Z,101353.27
2018-05-28T16:35:26.128Z,101346.80
2018-05-28T16:37:54.731Z,101346.40
2018-05-28T16:40:23.288Z,101346.58
2018-05-28T16:42:52.537Z,101345.08
2018-05-28T16:45:21.112Z,101343.55
2018-05-28T16:47:49.952Z,101347.29
2018-05-28T16:50:19.095Z,101345.00
2018-05-28T16:52:48.394Z,101342.02
2018-05-28T16:55:19.890Z,101337.91
2018-05-28T16:57:48.815Z,101345.96
2018-05-28T17:00:21.574Z,101351.06
2018-05-28T17:02:50.210Z,101343.52
2018-05-28T17:05:19.245Z,101343.39
2018-05-28T17:07:47.836Z,101343.59
2018-05-28T17:10:16.773Z,101344.68
2018-05-28T17:12:45.417Z,101336.23
2018-05-28T17:15:13.940Z,101345.48
2018-05-28T17:17:43.248Z,101350.70
2018-05-28T17:20:13.015Z,101340.70
2018-05-28T17:22:42.644Z,101340.09
2018-05-28T17:25:11.310Z,101337.12
2018-05-28T17:27:39.943Z,101333.25
2018-05-28T17:30:08.987Z,101335.95
2018-05-28T17:32:38.090Z,101339.20
2018-05-28T17:35:06.828Z,101334.98
2018-05-28T17:37:36.659Z,101339.53
2018-05-28T17:40:05.404Z,101335.29
2018-05-28T17:42:34.323Z,101340.75
2018-05-28T17:45:04.552Z,101343.60
2018-05-28T17:47:33.184Z,101343.43
2018-05-28T17:50:02.012Z,101341.42
2018-05-28T17:52:30.601Z,101336.80
2018-05-28T17:54:59.195Z,101333.17
2018-05-28T17:57:29.382Z,101343.49
2018-05-28T17:59:59.239Z,101343.66
2018-05-28T18:02:34.895Z,101347.36
2018-05-28T18:05:04.129Z,101342.11
2018-05-28T18:07:32.636Z,101349.16
2018-05-28T18:10:01.859Z,101351.58
2018-05-28T18:12:31.845Z,101357.24
2018-05-28T18:15:00.597Z,101356.63
2018-05-28T18:17:30.693Z,101359.45
2018-05-28T18:19:59.806Z,101359.07
2018-05-28T18:22:29.932Z,101360.01
2018-05-28T18:24:59.637Z,101359.06
2018-05-28T18:27:28.698Z,101368.07
2018-05-28T18:29:57.693Z,101373.31
2018-05-28T18:32:26.893Z,101377.95
2018-05-28T18:34:55.803Z,101379.95
2018-05-28T18:37:24.715Z,101378.69
2018-05-28T18:39:55.851Z,101386.22
2018-05-28T18:42:25.045Z,101386.88
2018-05-28T18:44:55.219Z,101393.84
2018-05-28T18:47:24.264Z,101397.27
2018-05-28T18:49:52.906Z,101390.16
2018-05-28T18:52:22.056Z,101398.52
2018-05-28T18:54:51.652Z,101392.19
2018-05-28T18:57:21.166Z,101400.19
2018-05-28T18:59:50.983Z,101401.50
2018-05-28T19:02:20.394Z,101403.67
2018-05-28T19:04:49.057Z,101408.44
2018-05-28T19:07:17.750Z,101412.70
2018-05-28T19:09:46.342Z,101403.72
2018-05-28T19:12:14.975Z,101409.84
2018-05-28T19:14:43.778Z,101407.03
2018-05-28T19:17:12.610Z,101414.00
2018-05-28T19:19:41.199Z,101412.64
2018-05-28T19:22:10.821Z,101415.94
2018-05-28T19:24:39.291Z,101424.30
2018-05-28T19:27:14.931Z,101427.23
2018-05-28T19:29:44.000Z,101430.87
2018-05-28T19:32:16.798Z,101433.30
2018-05-28T19:34:46.613Z,101429.24
2018-05-28T19:37:17.209Z,101429.47
2018-05-28T19:39:47.221Z,101430.41
2018-05-28T19:42:16.204Z,101435.03
2018-05-28T19:44:45.588Z,101440.31
2018-05-28T19:47:14.151Z,101441.24
2018-05-28T19:49:44.500Z,101431.95
2018-05-28T19:52:14.219Z,101443.04
2018-05-28T19:54:42.829Z,101443.91
2018-05-28T19:57:11.740Z,101451.08
2018-05-28T19:59:40.437Z,101447.05
2018-05-28T20:02:09.515Z,101441.09
2018-05-28T20:04:38.161Z,101440.72
2018-05-28T20:07:06.656Z,101446.58
2018-05-28T20:09:36.463Z,101442.59
2018-05-28T20:12:08.203Z,101451.28
2018-05-28T20:14:42.623Z,101450.10
2018-05-28T20:17:15.097Z,101450.10
2018-05-28T20:19:44.204Z,101455.50
2018-05-28T20:22:13.113Z,101456.52
2018-05-28T20:24:41.661Z,101457.27
2018-05-28T20:27:10.467Z,101457.15
2018-05-28T20:29:39.394Z,101455.70
2018-05-28T20:32:08.130Z,101459.02
2018-05-28T20:34:36.919Z,101455.33
2018-05-28T20:37:05.542Z,101463.58
2018-05-28T20:39:34.670Z,101458.86
2018-05-28T20:42:03.649Z,101458.69
2018-05-28T20:44:32.187Z,101461.86
2018-05-28T20:47:00.785Z,101466.71
2018-05-28T20:49:29.332Z,101470.28
2018-05-28T20:51:58.078Z,101464.77
2018-05-28T20:54:27.759Z,101467.13
2018-05-28T20:56:56.445Z,101464.41
2018-05-28T20:59:25.652Z,101462.61
2018-05-28T21:01:54.612Z,101468.33
2018-05-28T21:04:23.807Z,101465.61
2018-05-28T21:06:53.503Z,101473.67
2018-05-28T21:09:23.007Z,101473.58
2018-05-28T21:11:52.165Z,101479.78
2018-05-28T21:14:21.407Z,101475.11
2018-05-28T21:16:49.965Z,101472.70
2018-05-28T21:19:25.046Z,101473.16
2018-05-28T21:21:59.233Z,101471.68
2018-05-28T21:24:28.243Z,101477.25
2018-05-28T21:26:56.881Z,101480.83
2018-05-28T21:29:25.377Z,101475.60
2018-05-28T21:31:54.411Z,101486.52
2018-05-28T21:34:22.945Z,101492.47
2018-05-28T21:36:51.461Z,101491.17
2018-05-28T21:39:20.176Z,101498.23
2018-05-28T21:41:49.431Z,101493.70
2018-05-28T21:44:18.108Z,101494.55
2018-05-28T21:46:47.062Z,101497.05
2018-05-28T21:49:16.793Z,101497.76
2018-05-28T21:51:45.457Z,101503.77
2018-05-28T21:54:13.951Z,101506.27
2018-05-28T21:56:42.870Z,101501.42
2018-05-28T21:59:11.644Z,101499.34
2018-05-28T22:01:40.211Z,101503.83
2018-05-28T22:04:09.984Z,101502.42
2018-05-28T22:06:38.672Z,101503.88
2018-05-28T22:09:07.627Z,101506.88
2018-05-28T22:11:36.183Z,101503.88
2018-05-28T22:14:04.720Z,101502.83
2018-05-28T22:16:33.183Z,101505.75
2018-05-28T22:19:05.143Z,101499.32
2018-05-28T22:21:33.782Z,101502.84
2018-05-28T22:24:02.910Z,101504.42
2018-05-28T22:26:31.827Z,101500.61
2018-05-28T22:29:00.353Z,101499.86
2018-05-28T22:31:28.891Z,101497.70
2018-05-28T22:33:57.556Z,101499.77
2018-05-28T22:36:26.277Z,101504.02
2018-05-28T22:38:55.191Z,101494.72
2018-05-28T22:41:23.810Z,101489.76
2018-05-28T22:43:55.363Z,101492.94
2018-05-28T22:46:24.746Z,101496.76
2018-05-28T22:48:54.535Z,101500.09
2018-05-28T22:51:23.233Z,101498.44
2018-05-28T22:53:54.821Z,101497.53
2018-05-28T22:56:25.743Z,101504.23
2018-05-28T22:58:56.034Z,101502.23
2018-05-28T23:01:25.088Z,101501.39
2018-05-28T23:03:53.948Z,101500.02
2018-05-28T23:06:22.707Z,101496.31
2018-05-28T23:08:51.508Z,101493.63
2018-05-28T23:11:19.998Z,101499.64
2018-05-28T23:13:48.416Z,101497.82
2018-05-28T23:16:16.914Z,101492.80
2018-05-28T23:18:45.340Z,101495.20
2018-05-28T23:21:13.947Z,101492.59
2018-05-28T23:23:42.363Z,101489.08
2018-05-28T23:26:10.862Z,101490.74
2018-05-28T23:28:39.313Z,101486.06
2018-05-28T23:31:08.102Z,101473.75
2018-05-28T23:33:36.600Z,101471.86
2018-05-28T23:36:07.507Z,101481.63
2018-05-28T23:38:42.611Z,101483.53
2018-05-28T23:41:11.152Z,101476.16
2018-05-28T23:43:39.587Z,101472.60
2018-05-28T23:46:08.103Z,101464.55
2018-05-28T23:48:36.542Z,101462.83
2018-05-28T23:51:05.060Z,101462.20
2018-05-28T23:53:33.519Z,101466.30
2018-05-28T23:56:02.020Z,101462.55
2018-05-28T23:58:30.699Z,101466.86
